sensor_id;sensor_type;location;lat;lon;timestamp;P1;durP1;ratioP1;P2;durP2;ratioP2
41653;SDS011;68687;52.030;7.110;2023-12-04T00:00:24;42.92;;;21.02;;
41653;SDS011;68687;52.030;7.110;2023-12-04T00:02:49;46.28;;;20.48;;
41653;SDS011;68687;52.030;7.110;2023-12-04T00:05:15;47.67;;;21.15;;
41653;SDS011;68687;52.030;7.110;2023-12-04T00:07:40;48.03;;;22.45;;
41653;SDS011;68687;52.030;7.110;2023-12-04T00:10:05;50.17;;;22.88;;
41653;SDS011;68687;52.030;7.110;2023-12-04T00:12:31;45.70;;;22.67;;
41653;SDS011;68687;52.030;7.110;2023-12-04T00:14:56;49.33;;;22.77;;
41653;SDS011;68687;52.030;7.110;2023-12-04T00:17:22;49.80;;;22.27;;
41653;SDS011;68687;52.030;7.110;2023-12-04T00:19:47;46.42;;;20.77;;
41653;SDS011;68687;52.030;7.110;2023-12-04T00:22:12;46.05;;;21.88;;
41653;SDS011;68687;52.030;7.110;2023-12-04T00:24:38;46.85;;;22.73;;
41653;SDS011;68687;52.030;7.110;2023-12-04T00:27:03;46.10;;;22.33;;
41653;SDS011;68687;52.030;7.110;2023-12-04T00:29:28;51.65;;;21.73;;
41653;SDS011;68687;52.030;7.110;2023-12-04T00:31:54;47.95;;;22.33;;
41653;SDS011;68687;52.030;7.110;2023-12-04T00:34:21;49.78;;;21.92;;
41653;SDS011;68687;52.030;7.110;2023-12-04T00:36:47;46.00;;;22.83;;
41653;SDS011;68687;52.030;7.110;2023-12-04T00:39:12;47.33;;;21.55;;
41653;SDS011;68687;52.030;7.110;2023-12-04T00:41:37;49.35;;;21.55;;
41653;SDS011;68687;52.030;7.110;2023-12-04T00:44:03;44.80;;;20.52;;
41653;SDS011;68687;52.030;7.110;2023-12-04T00:46:28;44.20;;;20.63;;
41653;SDS011;68687;52.030;7.110;2023-12-04T00:48:53;42.05;;;19.90;;
41653;SDS011;68687;52.030;7.110;2023-12-04T00:51:19;47.05;;;20.65;;
41653;SDS011;68687;52.030;7.110;2023-12-04T00:53:44;39.75;;;19.23;;
41653;SDS011;68687;52.030;7.110;2023-12-04T00:56:09;38.35;;;18.00;;
41653;SDS011;68687;52.030;7.110;2023-12-04T00:58:35;36.00;;;17.17;;
41653;SDS011;68687;52.030;7.110;2023-12-04T01:01:00;40.45;;;18.27;;
41653;SDS011;68687;52.030;7.110;2023-12-04T01:03:25;34.80;;;17.35;;
41653;SDS011;68687;52.030;7.110;2023-12-04T01:05:51;35.05;;;17.92;;
41653;SDS011;68687;52.030;7.110;2023-12-04T01:08:17;36.72;;;16.83;;
41653;SDS011;68687;52.030;7.110;2023-12-04T01:10:42;32.13;;;16.20;;
41653;SDS011;68687;52.030;7.110;2023-12-04T01:13:08;38.75;;;16.95;;
41653;SDS011;68687;52.030;7.110;2023-12-04T01:15:33;34.90;;;16.60;;
41653;SDS011;68687;52.030;7.110;2023-12-04T01:17:58;40.22;;;17.63;;
41653;SDS011;68687;52.030;7.110;2023-12-04T01:20:25;40.13;;;18.25;;
41653;SDS011;68687;52.030;7.110;2023-12-04T01:22:50;40.03;;;17.23;;
41653;SDS011;68687;52.030;7.110;2023-12-04T01:25:16;39.05;;;18.25;;
41653;SDS011;68687;52.030;7.110;2023-12-04T01:27:41;41.83;;;18.25;;
41653;SDS011;68687;52.030;7.110;2023-12-04T01:33:29;39.92;;;17.65;;
41653;SDS011;68687;52.030;7.110;2023-12-04T01:36:04;40.45;;;19.48;;
41653;SDS011;68687;52.030;7.110;2023-12-04T01:38:29;36.83;;;17.75;;
41653;SDS011;68687;52.030;7.110;2023-12-04T01:40:55;39.08;;;17.50;;
41653;SDS011;68687;52.030;7.110;2023-12-04T01:43:20;41.85;;;18.08;;
41653;SDS011;68687;52.030;7.110;2023-12-04T01:45:45;38.15;;;18.77;;
41653;SDS011;68687;52.030;7.110;2023-12-04T01:48:11;37.58;;;16.48;;
41653;SDS011;68687;52.030;7.110;2023-12-04T01:50:38;36.30;;;16.98;;
41653;SDS011;68687;52.030;7.110;2023-12-04T01:53:04;39.88;;;16.95;;
41653;SDS011;68687;52.030;7.110;2023-12-04T01:55:29;35.75;;;17.23;;
41653;SDS011;68687;52.030;7.110;2023-12-04T01:57:56;30.30;;;16.10;;
41653;SDS011;68687;52.030;7.110;2023-12-04T02:00:22;39.78;;;17.42;;
41653;SDS011;68687;52.030;7.110;2023-12-04T02:02:47;38.63;;;17.98;;
41653;SDS011;68687;52.030;7.110;2023-12-04T02:05:19;39.40;;;17.60;;
41653;SDS011;68687;52.030;7.110;2023-12-04T02:07:45;33.47;;;16.27;;
41653;SDS011;68687;52.030;7.110;2023-12-04T02:10:11;35.47;;;17.77;;
41653;SDS011;68687;52.030;7.110;2023-12-04T02:12:36;38.33;;;17.50;;
41653;SDS011;68687;52.030;7.110;2023-12-04T02:15:02;33.05;;;15.77;;
41653;SDS011;68687;52.030;7.110;2023-12-04T02:20:50;32.50;;;15.65;;
41653;SDS011;68687;52.030;7.110;2023-12-04T02:25:50;33.90;;;16.25;;
41653;SDS011;68687;52.030;7.110;2023-12-04T02:28:24;36.17;;;15.95;;
41653;SDS011;68687;52.030;7.110;2023-12-04T02:30:52;34.28;;;16.42;;
41653;SDS011;68687;52.030;7.110;2023-12-04T02:33:19;32.22;;;16.15;;
41653;SDS011;68687;52.030;7.110;2023-12-04T02:35:49;28.75;;;15.23;;
41653;SDS011;68687;52.030;7.110;2023-12-04T02:38:16;27.75;;;15.75;;
41653;SDS011;68687;52.030;7.110;2023-12-04T02:40:46;30.70;;;14.77;;
41653;SDS011;68687;52.030;7.110;2023-12-04T02:43:14;34.97;;;16.20;;
41653;SDS011;68687;52.030;7.110;2023-12-04T02:45:39;34.92;;;17.10;;
41653;SDS011;68687;52.030;7.110;2023-12-04T02:48:05;34.13;;;15.25;;
41653;SDS011;68687;52.030;7.110;2023-12-04T02:50:30;30.85;;;15.13;;
41653;SDS011;68687;52.030;7.110;2023-12-04T02:52:56;30.70;;;15.10;;
41653;SDS011;68687;52.030;7.110;2023-12-04T02:55:21;33.97;;;16.63;;
41653;SDS011;68687;52.030;7.110;2023-12-04T02:57:46;27.65;;;14.35;;
41653;SDS011;68687;52.030;7.110;2023-12-04T03:00:12;33.35;;;16.50;;
41653;SDS011;68687;52.030;7.110;2023-12-04T03:05:13;29.35;;;14.52;;
41653;SDS011;68687;52.030;7.110;2023-12-04T03:07:38;27.77;;;13.73;;
41653;SDS011;68687;52.030;7.110;2023-12-04T03:10:03;34.95;;;15.38;;
41653;SDS011;68687;52.030;7.110;2023-12-04T03:12:29;32.85;;;14.85;;
41653;SDS011;68687;52.030;7.110;2023-12-04T03:14:54;29.45;;;14.70;;
41653;SDS011;68687;52.030;7.110;2023-12-04T03:17:20;31.30;;;15.30;;
41653;SDS011;68687;52.030;7.110;2023-12-04T03:19:45;28.15;;;14.80;;
41653;SDS011;68687;52.030;7.110;2023-12-04T03:22:11;31.15;;;15.82;;
41653;SDS011;68687;52.030;7.110;2023-12-04T03:24:37;27.85;;;15.00;;
41653;SDS011;68687;52.030;7.110;2023-12-04T03:27:02;31.50;;;15.63;;
41653;SDS011;68687;52.030;7.110;2023-12-04T03:29:27;35.45;;;16.65;;
41653;SDS011;68687;52.030;7.110;2023-12-04T03:31:53;33.85;;;16.10;;
41653;SDS011;68687;52.030;7.110;2023-12-04T03:34:18;28.02;;;14.73;;
41653;SDS011;68687;52.030;7.110;2023-12-04T03:36:43;30.15;;;15.52;;
41653;SDS011;68687;52.030;7.110;2023-12-04T03:42:30;28.45;;;14.88;;
41653;SDS011;68687;52.030;7.110;2023-12-04T03:44:56;31.58;;;16.58;;
41653;SDS011;68687;52.030;7.110;2023-12-04T03:47:30;27.63;;;14.68;;
41653;SDS011;68687;52.030;7.110;2023-12-04T03:49:58;27.38;;;13.57;;
41653;SDS011;68687;52.030;7.110;2023-12-04T03:52:26;28.50;;;13.80;;
41653;SDS011;68687;52.030;7.110;2023-12-04T03:54:51;28.67;;;14.73;;
41653;SDS011;68687;52.030;7.110;2023-12-04T03:57:17;31.80;;;14.43;;
41653;SDS011;68687;52.030;7.110;2023-12-04T03:59:43;27.25;;;14.45;;
41653;SDS011;68687;52.030;7.110;2023-12-04T04:02:09;22.88;;;13.23;;
41653;SDS011;68687;52.030;7.110;2023-12-04T04:04:34;26.77;;;14.50;;
41653;SDS011;68687;52.030;7.110;2023-12-04T04:06:59;27.67;;;13.82;;
41653;SDS011;68687;52.030;7.110;2023-12-04T04:09:24;26.77;;;14.32;;
41653;SDS011;68687;52.030;7.110;2023-12-04T04:11:53;28.50;;;14.32;;
41653;SDS011;68687;52.030;7.110;2023-12-04T04:14:21;24.33;;;13.40;;
41653;SDS011;68687;52.030;7.110;2023-12-04T04:16:48;24.05;;;13.43;;
41653;SDS011;68687;52.030;7.110;2023-12-04T04:19:13;25.23;;;13.90;;
41653;SDS011;68687;52.030;7.110;2023-12-04T04:21:47;24.60;;;14.10;;
41653;SDS011;68687;52.030;7.110;2023-12-04T04:24:13;23.05;;;13.02;;
41653;SDS011;68687;52.030;7.110;2023-12-04T04:26:38;24.02;;;14.05;;
41653;SDS011;68687;52.030;7.110;2023-12-04T04:29:03;23.50;;;13.60;;
41653;SDS011;68687;52.030;7.110;2023-12-04T04:31:28;27.60;;;15.38;;
41653;SDS011;68687;52.030;7.110;2023-12-04T04:33:54;22.85;;;14.63;;
41653;SDS011;68687;52.030;7.110;2023-12-04T04:36:19;24.85;;;13.90;;
41653;SDS011;68687;52.030;7.110;2023-12-04T04:38:44;25.83;;;14.85;;
41653;SDS011;68687;52.030;7.110;2023-12-04T04:41:13;24.17;;;15.35;;
41653;SDS011;68687;52.030;7.110;2023-12-04T04:43:40;25.35;;;13.85;;
41653;SDS011;68687;52.030;7.110;2023-12-04T04:46:05;28.00;;;14.60;;
41653;SDS011;68687;52.030;7.110;2023-12-04T04:48:30;25.15;;;14.50;;
41653;SDS011;68687;52.030;7.110;2023-12-04T04:50:55;23.48;;;13.85;;
41653;SDS011;68687;52.030;7.110;2023-12-04T04:53:21;24.85;;;14.70;;
41653;SDS011;68687;52.030;7.110;2023-12-04T04:55:46;28.63;;;14.20;;
41653;SDS011;68687;52.030;7.110;2023-12-04T04:58:11;21.85;;;13.65;;
41653;SDS011;68687;52.030;7.110;2023-12-04T05:00:36;26.15;;;14.07;;
41653;SDS011;68687;52.030;7.110;2023-12-04T05:03:02;27.35;;;15.13;;
41653;SDS011;68687;52.030;7.110;2023-12-04T05:05:27;24.58;;;14.32;;
41653;SDS011;68687;52.030;7.110;2023-12-04T05:07:52;29.63;;;16.67;;
41653;SDS011;68687;52.030;7.110;2023-12-04T05:10:18;29.05;;;16.13;;
41653;SDS011;68687;52.030;7.110;2023-12-04T05:12:43;26.92;;;15.93;;
41653;SDS011;68687;52.030;7.110;2023-12-04T05:15:08;23.15;;;14.20;;
41653;SDS011;68687;52.030;7.110;2023-12-04T05:17:34;24.95;;;14.90;;
41653;SDS011;68687;52.030;7.110;2023-12-04T05:19:59;18.77;;;13.05;;
41653;SDS011;68687;52.030;7.110;2023-12-04T05:22:24;23.33;;;14.27;;
41653;SDS011;68687;52.030;7.110;2023-12-04T05:24:50;21.60;;;12.93;;
41653;SDS011;68687;52.030;7.110;2023-12-04T05:27:15;19.92;;;13.18;;
41653;SDS011;68687;52.030;7.110;2023-12-04T05:29:41;21.00;;;13.52;;
41653;SDS011;68687;52.030;7.110;2023-12-04T05:32:06;19.50;;;13.88;;
41653;SDS011;68687;52.030;7.110;2023-12-04T05:34:31;17.92;;;12.82;;
41653;SDS011;68687;52.030;7.110;2023-12-04T05:36:56;22.90;;;14.00;;
41653;SDS011;68687;52.030;7.110;2023-12-04T05:39:22;22.73;;;15.48;;
41653;SDS011;68687;52.030;7.110;2023-12-04T05:41:47;22.80;;;15.52;;
41653;SDS011;68687;52.030;7.110;2023-12-04T05:44:13;20.08;;;14.13;;
41653;SDS011;68687;52.030;7.110;2023-12-04T05:46:38;18.02;;;13.25;;
41653;SDS011;68687;52.030;7.110;2023-12-04T05:49:04;20.45;;;14.57;;
41653;SDS011;68687;52.030;7.110;2023-12-04T05:51:29;21.48;;;15.45;;
41653;SDS011;68687;52.030;7.110;2023-12-04T05:53:54;21.17;;;14.65;;
41653;SDS011;68687;52.030;7.110;2023-12-04T05:56:20;18.50;;;13.73;;
41653;SDS011;68687;52.030;7.110;2023-12-04T05:58:45;20.90;;;14.63;;
41653;SDS011;68687;52.030;7.110;2023-12-04T06:01:10;21.83;;;14.40;;
41653;SDS011;68687;52.030;7.110;2023-12-04T06:03:35;18.48;;;14.93;;
41653;SDS011;68687;52.030;7.110;2023-12-04T06:06:01;23.50;;;14.98;;
41653;SDS011;68687;52.030;7.110;2023-12-04T06:08:26;17.58;;;13.10;;
41653;SDS011;68687;52.030;7.110;2023-12-04T06:10:51;19.40;;;14.48;;
41653;SDS011;68687;52.030;7.110;2023-12-04T06:13:17;17.90;;;14.15;;
41653;SDS011;68687;52.030;7.110;2023-12-04T06:15:42;17.90;;;14.35;;
41653;SDS011;68687;52.030;7.110;2023-12-04T06:18:07;23.13;;;15.85;;
41653;SDS011;68687;52.030;7.110;2023-12-04T06:20:33;20.77;;;15.20;;
41653;SDS011;68687;52.030;7.110;2023-12-04T06:22:58;27.23;;;14.63;;
41653;SDS011;68687;52.030;7.110;2023-12-04T06:25:24;16.98;;;13.90;;
41653;SDS011;68687;52.030;7.110;2023-12-04T06:27:53;20.08;;;14.38;;
41653;SDS011;68687;52.030;7.110;2023-12-04T06:30:19;17.58;;;13.48;;
41653;SDS011;68687;52.030;7.110;2023-12-04T06:32:51;18.85;;;13.60;;
41653;SDS011;68687;52.030;7.110;2023-12-04T06:35:16;17.02;;;13.90;;
41653;SDS011;68687;52.030;7.110;2023-12-04T06:37:45;18.65;;;14.35;;
41653;SDS011;68687;52.030;7.110;2023-12-04T06:40:12;21.55;;;14.48;;
41653;SDS011;68687;52.030;7.110;2023-12-04T06:42:40;24.02;;;15.32;;
41653;SDS011;68687;52.030;7.110;2023-12-04T06:45:12;19.42;;;15.30;;
41653;SDS011;68687;52.030;7.110;2023-12-04T06:47:39;21.10;;;15.50;;
41653;SDS011;68687;52.030;7.110;2023-12-04T06:50:06;16.40;;;13.50;;
41653;SDS011;68687;52.030;7.110;2023-12-04T06:52:31;16.67;;;13.95;;
41653;SDS011;68687;52.030;7.110;2023-12-04T06:54:56;17.50;;;14.95;;
41653;SDS011;68687;52.030;7.110;2023-12-04T06:57:22;17.63;;;14.45;;
41653;SDS011;68687;52.030;7.110;2023-12-04T06:59:47;16.58;;;14.05;;
41653;SDS011;68687;52.030;7.110;2023-12-04T07:02:12;20.25;;;14.52;;
41653;SDS011;68687;52.030;7.110;2023-12-04T07:04:37;14.68;;;13.07;;
41653;SDS011;68687;52.030;7.110;2023-12-04T07:07:03;17.90;;;12.93;;
41653;SDS011;68687;52.030;7.110;2023-12-04T07:09:30;15.65;;;13.45;;
41653;SDS011;68687;52.030;7.110;2023-12-04T07:12:00;15.07;;;13.45;;
41653;SDS011;68687;52.030;7.110;2023-12-04T07:14:25;17.48;;;13.70;;
41653;SDS011;68687;52.030;7.110;2023-12-04T07:16:51;19.23;;;14.57;;
41653;SDS011;68687;52.030;7.110;2023-12-04T07:19:16;17.20;;;13.35;;
41653;SDS011;68687;52.030;7.110;2023-12-04T07:21:42;19.60;;;14.77;;
41653;SDS011;68687;52.030;7.110;2023-12-04T07:24:13;18.67;;;15.07;;
41653;SDS011;68687;52.030;7.110;2023-12-04T07:26:38;15.27;;;13.70;;
41653;SDS011;68687;52.030;7.110;2023-12-04T07:29:03;21.25;;;14.13;;
41653;SDS011;68687;52.030;7.110;2023-12-04T07:31:29;16.02;;;13.95;;
41653;SDS011;68687;52.030;7.110;2023-12-04T07:33:55;15.48;;;13.68;;
41653;SDS011;68687;52.030;7.110;2023-12-04T07:36:21;16.08;;;14.30;;
41653;SDS011;68687;52.030;7.110;2023-12-04T07:38:46;15.15;;;13.60;;
41653;SDS011;68687;52.030;7.110;2023-12-04T07:41:12;18.60;;;14.70;;
41653;SDS011;68687;52.030;7.110;2023-12-04T07:43:41;17.25;;;13.93;;
41653;SDS011;68687;52.030;7.110;2023-12-04T07:46:08;17.60;;;13.77;;
41653;SDS011;68687;52.030;7.110;2023-12-04T07:48:35;19.52;;;13.40;;
41653;SDS011;68687;52.030;7.110;2023-12-04T07:51:00;14.93;;;13.05;;
41653;SDS011;68687;52.030;7.110;2023-12-04T07:53:26;15.60;;;13.43;;
41653;SDS011;68687;52.030;7.110;2023-12-04T07:55:51;15.98;;;13.73;;
41653;SDS011;68687;52.030;7.110;2023-12-04T07:58:17;18.92;;;14.85;;
41653;SDS011;68687;52.030;7.110;2023-12-04T08:00:43;18.65;;;14.80;;
41653;SDS011;68687;52.030;7.110;2023-12-04T08:03:09;16.60;;;14.30;;
41653;SDS011;68687;52.030;7.110;2023-12-04T08:05:34;20.83;;;14.65;;
41653;SDS011;68687;52.030;7.110;2023-12-04T08:08:00;16.52;;;14.00;;
41653;SDS011;68687;52.030;7.110;2023-12-04T08:10:25;14.80;;;13.07;;
41653;SDS011;68687;52.030;7.110;2023-12-04T08:12:50;17.50;;;14.23;;
41653;SDS011;68687;52.030;7.110;2023-12-04T08:15:16;20.92;;;14.43;;
41653;SDS011;68687;52.030;7.110;2023-12-04T08:17:41;17.13;;;14.27;;
41653;SDS011;68687;52.030;7.110;2023-12-04T08:20:06;16.92;;;14.45;;
41653;SDS011;68687;52.030;7.110;2023-12-04T08:22:32;19.92;;;15.20;;
41653;SDS011;68687;52.030;7.110;2023-12-04T08:24:58;16.35;;;14.60;;
41653;SDS011;68687;52.030;7.110;2023-12-04T08:27:24;18.55;;;15.23;;
41653;SDS011;68687;52.030;7.110;2023-12-04T08:29:58;19.00;;;15.50;;
41653;SDS011;68687;52.030;7.110;2023-12-04T08:32:24;18.20;;;16.25;;
41653;SDS011;68687;52.030;7.110;2023-12-04T08:34:51;16.70;;;13.80;;
41653;SDS011;68687;52.030;7.110;2023-12-04T08:37:16;15.80;;;14.05;;
41653;SDS011;68687;52.030;7.110;2023-12-04T08:39:41;16.02;;;13.90;;
41653;SDS011;68687;52.030;7.110;2023-12-04T08:42:07;15.82;;;13.52;;
41653;SDS011;68687;52.030;7.110;2023-12-04T08:44:35;14.45;;;12.48;;
41653;SDS011;68687;52.030;7.110;2023-12-04T08:47:00;14.13;;;11.85;;
41653;SDS011;68687;52.030;7.110;2023-12-04T08:49:26;13.40;;;11.77;;
41653;SDS011;68687;52.030;7.110;2023-12-04T08:51:54;15.15;;;12.55;;
41653;SDS011;68687;52.030;7.110;2023-12-04T08:54:19;14.38;;;11.48;;
41653;SDS011;68687;52.030;7.110;2023-12-04T08:56:45;16.05;;;11.85;;
41653;SDS011;68687;52.030;7.110;2023-12-04T08:59:10;13.52;;;11.70;;
41653;SDS011;68687;52.030;7.110;2023-12-04T09:01:35;14.55;;;11.68;;
41653;SDS011;68687;52.030;7.110;2023-12-04T09:04:01;12.43;;;11.30;;
41653;SDS011;68687;52.030;7.110;2023-12-04T09:06:26;19.17;;;11.85;;
41653;SDS011;68687;52.030;7.110;2023-12-04T09:08:54;14.93;;;11.85;;
41653;SDS011;68687;52.030;7.110;2023-12-04T09:11:20;13.15;;;11.45;;
41653;SDS011;68687;52.030;7.110;2023-12-04T09:13:45;17.67;;;12.00;;
41653;SDS011;68687;52.030;7.110;2023-12-04T09:16:10;14.60;;;13.05;;
41653;SDS011;68687;52.030;7.110;2023-12-04T09:18:35;14.95;;;12.52;;
41653;SDS011;68687;52.030;7.110;2023-12-04T09:21:01;12.70;;;11.40;;
41653;SDS011;68687;52.030;7.110;2023-12-04T09:23:26;14.15;;;11.82;;
41653;SDS011;68687;52.030;7.110;2023-12-04T09:25:51;13.77;;;11.50;;
41653;SDS011;68687;52.030;7.110;2023-12-04T09:28:17;14.65;;;12.57;;
41653;SDS011;68687;52.030;7.110;2023-12-04T09:30:42;11.93;;;10.30;;
41653;SDS011;68687;52.030;7.110;2023-12-04T09:33:08;12.77;;;11.32;;
41653;SDS011;68687;52.030;7.110;2023-12-04T09:35:33;12.73;;;10.32;;
41653;SDS011;68687;52.030;7.110;2023-12-04T09:37:58;13.50;;;10.98;;
41653;SDS011;68687;52.030;7.110;2023-12-04T09:40:24;15.38;;;11.60;;
41653;SDS011;68687;52.030;7.110;2023-12-04T09:42:53;13.77;;;10.85;;
41653;SDS011;68687;52.030;7.110;2023-12-04T09:45:19;13.32;;;10.70;;
41653;SDS011;68687;52.030;7.110;2023-12-04T09:47:45;15.90;;;11.10;;
41653;SDS011;68687;52.030;7.110;2023-12-04T09:50:12;13.38;;;10.88;;
41653;SDS011;68687;52.030;7.110;2023-12-04T09:52:40;12.13;;;10.80;;
41653;SDS011;68687;52.030;7.110;2023-12-04T09:55:06;11.82;;;10.48;;
41653;SDS011;68687;52.030;7.110;2023-12-04T09:57:31;16.33;;;13.15;;
41653;SDS011;68687;52.030;7.110;2023-12-04T09:59:57;12.55;;;11.25;;
41653;SDS011;68687;52.030;7.110;2023-12-04T10:02:25;12.52;;;11.23;;
41653;SDS011;68687;52.030;7.110;2023-12-04T10:04:51;15.73;;;11.98;;
41653;SDS011;68687;52.030;7.110;2023-12-04T10:07:20;12.15;;;10.82;;
41653;SDS011;68687;52.030;7.110;2023-12-04T10:09:45;14.55;;;11.10;;
41653;SDS011;68687;52.030;7.110;2023-12-04T10:12:10;13.52;;;10.63;;
41653;SDS011;68687;52.030;7.110;2023-12-04T10:14:36;12.70;;;10.00;;
41653;SDS011;68687;52.030;7.110;2023-12-04T10:17:13;12.90;;;10.90;;
41653;SDS011;68687;52.030;7.110;2023-12-04T10:19:45;12.60;;;10.77;;
41653;SDS011;68687;52.030;7.110;2023-12-04T10:22:11;12.73;;;10.50;;
41653;SDS011;68687;52.030;7.110;2023-12-04T10:24:38;14.40;;;10.20;;
41653;SDS011;68687;52.030;7.110;2023-12-04T10:27:04;12.60;;;11.27;;
41653;SDS011;68687;52.030;7.110;2023-12-04T10:29:42;11.45;;;10.25;;
41653;SDS011;68687;52.030;7.110;2023-12-04T10:32:07;12.52;;;10.32;;
41653;SDS011;68687;52.030;7.110;2023-12-04T10:34:33;10.82;;;9.73;;
41653;SDS011;68687;52.030;7.110;2023-12-04T10:37:02;13.48;;;11.65;;
41653;SDS011;68687;52.030;7.110;2023-12-04T10:39:28;12.85;;;10.18;;
41653;SDS011;68687;52.030;7.110;2023-12-04T10:42:01;12.30;;;10.93;;
41653;SDS011;68687;52.030;7.110;2023-12-04T10:44:27;13.43;;;11.50;;
41653;SDS011;68687;52.030;7.110;2023-12-04T10:46:54;14.00;;;10.65;;
41653;SDS011;68687;52.030;7.110;2023-12-04T10:49:23;15.75;;;11.82;;
41653;SDS011;68687;52.030;7.110;2023-12-04T10:51:51;13.63;;;11.10;;
41653;SDS011;68687;52.030;7.110;2023-12-04T10:54:23;14.00;;;11.15;;
41653;SDS011;68687;52.030;7.110;2023-12-04T10:56:48;12.43;;;11.13;;
41653;SDS011;68687;52.030;7.110;2023-12-04T10:59:18;17.17;;;12.07;;
41653;SDS011;68687;52.030;7.110;2023-12-04T11:01:49;13.82;;;12.23;;
41653;SDS011;68687;52.030;7.110;2023-12-04T11:04:18;12.07;;;10.77;;
41653;SDS011;68687;52.030;7.110;2023-12-04T11:06:48;12.20;;;10.93;;
41653;SDS011;68687;52.030;7.110;2023-12-04T11:09:20;14.73;;;11.65;;
41653;SDS011;68687;52.030;7.110;2023-12-04T11:11:46;12.73;;;11.43;;
41653;SDS011;68687;52.030;7.110;2023-12-04T11:14:16;12.85;;;11.48;;
41653;SDS011;68687;52.030;7.110;2023-12-04T11:16:48;13.23;;;11.93;;
41653;SDS011;68687;52.030;7.110;2023-12-04T11:22:08;18.55;;;11.75;;
41653;SDS011;68687;52.030;7.110;2023-12-04T11:24:35;21.95;;;14.13;;
41653;SDS011;68687;52.030;7.110;2023-12-04T11:27:01;15.25;;;11.65;;
41653;SDS011;68687;52.030;7.110;2023-12-04T11:29:27;14.68;;;12.15;;
41653;SDS011;68687;52.030;7.110;2023-12-04T11:31:54;14.35;;;11.80;;
41653;SDS011;68687;52.030;7.110;2023-12-04T11:34:19;12.55;;;10.10;;
41653;SDS011;68687;52.030;7.110;2023-12-04T11:36:44;11.93;;;10.75;;
41653;SDS011;68687;52.030;7.110;2023-12-04T11:39:10;12.55;;;10.10;;
41653;SDS011;68687;52.030;7.110;2023-12-04T11:41:36;13.90;;;11.13;;
41653;SDS011;68687;52.030;7.110;2023-12-04T11:44:02;13.10;;;10.23;;
41653;SDS011;68687;52.030;7.110;2023-12-04T11:46:28;12.68;;;10.93;;
41653;SDS011;68687;52.030;7.110;2023-12-04T11:48:56;12.75;;;10.77;;
41653;SDS011;68687;52.030;7.110;2023-12-04T11:54:07;11.60;;;10.40;;
41653;SDS011;68687;52.030;7.110;2023-12-04T11:56:33;12.93;;;10.45;;
41653;SDS011;68687;52.030;7.110;2023-12-04T11:59:05;14.40;;;10.35;;
41653;SDS011;68687;52.030;7.110;2023-12-04T12:01:37;11.55;;;10.27;;
41653;SDS011;68687;52.030;7.110;2023-12-04T12:04:06;12.43;;;11.07;;
41653;SDS011;68687;52.030;7.110;2023-12-04T12:06:32;14.20;;;11.18;;
41653;SDS011;68687;52.030;7.110;2023-12-04T12:08:57;12.50;;;10.63;;
41653;SDS011;68687;52.030;7.110;2023-12-04T12:11:25;14.95;;;11.45;;
41653;SDS011;68687;52.030;7.110;2023-12-04T12:13:54;12.60;;;11.13;;
41653;SDS011;68687;52.030;7.110;2023-12-04T12:16:19;17.42;;;10.63;;
41653;SDS011;68687;52.030;7.110;2023-12-04T12:18:44;16.58;;;11.00;;
41653;SDS011;68687;52.030;7.110;2023-12-04T12:21:14;12.07;;;10.82;;
41653;SDS011;68687;52.030;7.110;2023-12-04T12:23:39;13.15;;;11.02;;
41653;SDS011;68687;52.030;7.110;2023-12-04T12:26:05;12.10;;;10.40;;
41653;SDS011;68687;52.030;7.110;2023-12-04T12:28:30;11.82;;;9.82;;
41653;SDS011;68687;52.030;7.110;2023-12-04T12:30:55;11.50;;;9.80;;
41653;SDS011;68687;52.030;7.110;2023-12-04T12:33:21;15.23;;;10.73;;
41653;SDS011;68687;52.030;7.110;2023-12-04T12:35:47;13.02;;;10.75;;
41653;SDS011;68687;52.030;7.110;2023-12-04T12:38:22;17.73;;;12.20;;
41653;SDS011;68687;52.030;7.110;2023-12-04T12:40:47;14.93;;;11.88;;
41653;SDS011;68687;52.030;7.110;2023-12-04T12:43:12;18.30;;;12.48;;
41653;SDS011;68687;52.030;7.110;2023-12-04T12:45:41;12.63;;;11.32;;
41653;SDS011;68687;52.030;7.110;2023-12-04T12:48:12;11.50;;;10.18;;
41653;SDS011;68687;52.030;7.110;2023-12-04T12:50:44;15.88;;;13.55;;
41653;SDS011;68687;52.030;7.110;2023-12-04T12:53:14;13.10;;;11.40;;
41653;SDS011;68687;52.030;7.110;2023-12-04T12:55:42;13.13;;;11.35;;
41653;SDS011;68687;52.030;7.110;2023-12-04T12:58:14;18.35;;;12.00;;
41653;SDS011;68687;52.030;7.110;2023-12-04T13:00:46;15.13;;;12.50;;
41653;SDS011;68687;52.030;7.110;2023-12-04T13:03:19;15.68;;;12.30;;
41653;SDS011;68687;52.030;7.110;2023-12-04T13:05:44;15.82;;;12.38;;
41653;SDS011;68687;52.030;7.110;2023-12-04T13:08:10;18.25;;;12.45;;
41653;SDS011;68687;52.030;7.110;2023-12-04T13:10:42;14.23;;;12.35;;
41653;SDS011;68687;52.030;7.110;2023-12-04T13:13:11;17.40;;;12.52;;
41653;SDS011;68687;52.030;7.110;2023-12-04T13:15:37;13.90;;;11.50;;
41653;SDS011;68687;52.030;7.110;2023-12-04T13:18:02;12.43;;;10.95;;
41653;SDS011;68687;52.030;7.110;2023-12-04T13:20:30;13.48;;;11.57;;
41653;SDS011;68687;52.030;7.110;2023-12-04T13:22:55;14.65;;;13.05;;
41653;SDS011;68687;52.030;7.110;2023-12-04T13:25:21;15.80;;;11.88;;
41653;SDS011;68687;52.030;7.110;2023-12-04T13:27:47;15.23;;;12.05;;
41653;SDS011;68687;52.030;7.110;2023-12-04T13:30:13;19.42;;;12.05;;
41653;SDS011;68687;52.030;7.110;2023-12-04T13:32:38;14.80;;;11.73;;
41653;SDS011;68687;52.030;7.110;2023-12-04T13:35:04;16.50;;;11.63;;
41653;SDS011;68687;52.030;7.110;2023-12-04T13:37:33;15.38;;;12.00;;
41653;SDS011;68687;52.030;7.110;2023-12-04T13:40:00;14.85;;;10.90;;
41653;SDS011;68687;52.030;7.110;2023-12-04T13:42:34;14.20;;;10.88;;
41653;SDS011;68687;52.030;7.110;2023-12-04T13:45:19;13.60;;;10.55;;
41653;SDS011;68687;52.030;7.110;2023-12-04T13:47:47;13.40;;;10.30;;
41653;SDS011;68687;52.030;7.110;2023-12-04T13:50:16;11.98;;;10.48;;
41653;SDS011;68687;52.030;7.110;2023-12-04T13:52:45;15.05;;;12.15;;
41653;SDS011;68687;52.030;7.110;2023-12-04T13:55:17;14.65;;;11.40;;
41653;SDS011;68687;52.030;7.110;2023-12-04T13:57:45;19.27;;;11.52;;
41653;SDS011;68687;52.030;7.110;2023-12-04T14:00:20;16.83;;;11.55;;
41653;SDS011;68687;52.030;7.110;2023-12-04T14:02:45;14.30;;;11.05;;
41653;SDS011;68687;52.030;7.110;2023-12-04T14:05:10;16.02;;;11.13;;
41653;SDS011;68687;52.030;7.110;2023-12-04T14:07:40;33.40;;;15.25;;
41653;SDS011;68687;52.030;7.110;2023-12-04T14:10:08;17.00;;;12.20;;
41653;SDS011;68687;52.030;7.110;2023-12-04T14:12:34;16.65;;;11.55;;
41653;SDS011;68687;52.030;7.110;2023-12-04T14:15:01;26.10;;;15.32;;
41653;SDS011;68687;52.030;7.110;2023-12-04T14:17:28;32.38;;;18.98;;
41653;SDS011;68687;52.030;7.110;2023-12-04T14:19:56;18.25;;;12.02;;
41653;SDS011;68687;52.030;7.110;2023-12-04T14:22:22;15.00;;;10.40;;
41653;SDS011;68687;52.030;7.110;2023-12-04T14:24:47;14.52;;;10.75;;
41653;SDS011;68687;52.030;7.110;2023-12-04T14:27:12;57.83;;;27.08;;
41653;SDS011;68687;52.030;7.110;2023-12-04T14:29:38;33.92;;;18.50;;
41653;SDS011;68687;52.030;7.110;2023-12-04T14:32:05;18.58;;;11.88;;
41653;SDS011;68687;52.030;7.110;2023-12-04T14:34:30;21.02;;;13.40;;
41653;SDS011;68687;52.030;7.110;2023-12-04T14:36:57;36.25;;;18.92;;